sensor_id;sensor_type;location;lat;lon;timestamp;temperature;humidity
19817;DHT22;68323;49.394;8.434;2023-06-19T00:01:46;25.50;62.00
19817;DHT22;68323;49.394;8.434;2023-06-19T00:04:12;25.60;62.50
19817;DHT22;68323;49.394;8.434;2023-06-19T00:06:37;25.60;63.50
19817;DHT22;68323;49.394;8.434;2023-06-19T00:09:03;25.40;63.20
19817;DHT22;68323;49.394;8.434;2023-06-19T00:11:29;25.40;63.00
19817;DHT22;68323;49.394;8.434;2023-06-19T00:13:55;25.30;62.10
19817;DHT22;68323;49.394;8.434;2023-06-19T00:16:20;25.30;61.50
19817;DHT22;68323;49.394;8.434;2023-06-19T00:18:46;25.30;61.20
19817;DHT22;68323;49.394;8.434;2023-06-19T00:21:12;25.30;60.90
19817;DHT22;68323;49.394;8.434;2023-06-19T00:23:37;25.30;60.90
19817;DHT22;68323;49.394;8.434;2023-06-19T00:26:03;25.30;60.80
19817;DHT22;68323;49.394;8.434;2023-06-19T00:28:30;25.30;61.40
19817;DHT22;68323;49.394;8.434;2023-06-19T00:30:55;25.30;60.90
19817;DHT22;68323;49.394;8.434;2023-06-19T00:33:21;25.30;63.00
19817;DHT22;68323;49.394;8.434;2023-06-19T00:35:47;25.30;65.60
19817;DHT22;68323;49.394;8.434;2023-06-19T00:38:13;25.10;65.70
19817;DHT22;68323;49.394;8.434;2023-06-19T00:40:39;25.00;65.40
19817;DHT22;68323;49.394;8.434;2023-06-19T00:43:06;24.90;64.90
19817;DHT22;68323;49.394;8.434;2023-06-19T00:45:31;24.80;64.90
19817;DHT22;68323;49.394;8.434;2023-06-19T00:47:58;24.80;64.60
19817;DHT22;68323;49.394;8.434;2023-06-19T00:50:24;24.80;64.60
19817;DHT22;68323;49.394;8.434;2023-06-19T00:52:50;24.70;63.80
19817;DHT22;68323;49.394;8.434;2023-06-19T00:55:17;24.70;63.90
19817;DHT22;68323;49.394;8.434;2023-06-19T00:57:43;24.70;63.80
19817;DHT22;68323;49.394;8.434;2023-06-19T01:00:09;24.60;64.40
19817;DHT22;68323;49.394;8.434;2023-06-19T01:02:38;24.60;65.30
19817;DHT22;68323;49.394;8.434;2023-06-19T01:05:03;24.60;65.90
19817;DHT22;68323;49.394;8.434;2023-06-19T01:07:42;24.60;66.40
19817;DHT22;68323;49.394;8.434;2023-06-19T01:10:12;24.50;66.30
19817;DHT22;68323;49.394;8.434;2023-06-19T01:12:42;24.50;66.40
19817;DHT22;68323;49.394;8.434;2023-06-19T01:15:14;24.40;67.40
19817;DHT22;68323;49.394;8.434;2023-06-19T01:17:40;24.40;66.90
19817;DHT22;68323;49.394;8.434;2023-06-19T01:20:06;24.40;65.90
19817;DHT22;68323;49.394;8.434;2023-06-19T01:22:36;24.50;65.40
19817;DHT22;68323;49.394;8.434;2023-06-19T01:25:02;24.50;65.60
19817;DHT22;68323;49.394;8.434;2023-06-19T01:27:29;24.50;65.50
19817;DHT22;68323;49.394;8.434;2023-06-19T01:29:56;24.50;65.30
19817;DHT22;68323;49.394;8.434;2023-06-19T01:34:57;24.40;66.90
19817;DHT22;68323;49.394;8.434;2023-06-19T01:37:24;24.40;66.70
19817;DHT22;68323;49.394;8.434;2023-06-19T01:39:56;24.40;66.90
19817;DHT22;68323;49.394;8.434;2023-06-19T01:42:23;24.40;67.10
19817;DHT22;68323;49.394;8.434;2023-06-19T01:44:49;24.40;66.70
19817;DHT22;68323;49.394;8.434;2023-06-19T01:47:15;24.40;66.80
19817;DHT22;68323;49.394;8.434;2023-06-19T01:49:45;24.40;66.60
19817;DHT22;68323;49.394;8.434;2023-06-19T01:52:11;24.40;66.70
19817;DHT22;68323;49.394;8.434;2023-06-19T01:54:37;24.40;67.00
19817;DHT22;68323;49.394;8.434;2023-06-19T01:57:02;24.40;67.70
19817;DHT22;68323;49.394;8.434;2023-06-19T01:59:28;24.50;68.20
19817;DHT22;68323;49.394;8.434;2023-06-19T02:01:53;24.50;68.40
19817;DHT22;68323;49.394;8.434;2023-06-19T02:04:19;24.50;69.00
19817;DHT22;68323;49.394;8.434;2023-06-19T02:06:44;24.50;69.20
19817;DHT22;68323;49.394;8.434;2023-06-19T02:09:10;24.60;69.80
19817;DHT22;68323;49.394;8.434;2023-06-19T02:11:36;24.60;70.00
19817;DHT22;68323;49.394;8.434;2023-06-19T02:14:02;24.50;70.10
19817;DHT22;68323;49.394;8.434;2023-06-19T02:16:27;24.60;70.50
19817;DHT22;68323;49.394;8.434;2023-06-19T02:18:53;24.60;70.40
19817;DHT22;68323;49.394;8.434;2023-06-19T02:21:18;24.50;70.40
19817;DHT22;68323;49.394;8.434;2023-06-19T02:23:44;24.50;70.80
19817;DHT22;68323;49.394;8.434;2023-06-19T02:26:09;24.50;70.90
19817;DHT22;68323;49.394;8.434;2023-06-19T02:28:35;24.50;71.30
19817;DHT22;68323;49.394;8.434;2023-06-19T02:31:00;24.50;71.90
19817;DHT22;68323;49.394;8.434;2023-06-19T02:33:26;24.50;72.60
19817;DHT22;68323;49.394;8.434;2023-06-19T02:35:51;24.40;73.10
19817;DHT22;68323;49.394;8.434;2023-06-19T02:38:17;24.40;73.40
19817;DHT22;68323;49.394;8.434;2023-06-19T02:40:46;24.40;74.20
19817;DHT22;68323;49.394;8.434;2023-06-19T02:43:12;24.40;74.50
19817;DHT22;68323;49.394;8.434;2023-06-19T02:45:37;24.40;75.30
19817;DHT22;68323;49.394;8.434;2023-06-19T02:48:03;24.30;76.40
19817;DHT22;68323;49.394;8.434;2023-06-19T02:50:29;24.20;77.10
19817;DHT22;68323;49.394;8.434;2023-06-19T02:52:54;24.20;78.00
19817;DHT22;68323;49.394;8.434;2023-06-19T02:55:20;24.10;80.20
19817;DHT22;68323;49.394;8.434;2023-06-19T02:57:45;24.10;80.70
19817;DHT22;68323;49.394;8.434;2023-06-19T03:00:11;24.00;82.70
19817;DHT22;68323;49.394;8.434;2023-06-19T03:02:37;23.90;85.40
19817;DHT22;68323;49.394;8.434;2023-06-19T03:05:09;23.70;87.40
19817;DHT22;68323;49.394;8.434;2023-06-19T03:07:35;23.60;90.10
19817;DHT22;68323;49.394;8.434;2023-06-19T03:10:00;23.50;92.00
19817;DHT22;68323;49.394;8.434;2023-06-19T03:12:26;23.30;93.90
19817;DHT22;68323;49.394;8.434;2023-06-19T03:14:51;23.20;96.20
19817;DHT22;68323;49.394;8.434;2023-06-19T03:17:17;23.10;98.30
19817;DHT22;68323;49.394;8.434;2023-06-19T03:19:42;22.90;99.60
19817;DHT22;68323;49.394;8.434;2023-06-19T03:22:08;22.80;99.90
19817;DHT22;68323;49.394;8.434;2023-06-19T03:24:33;22.80;99.90
19817;DHT22;68323;49.394;8.434;2023-06-19T03:26:59;22.80;99.90
19817;DHT22;68323;49.394;8.434;2023-06-19T03:29:24;22.70;99.90
19817;DHT22;68323;49.394;8.434;2023-06-19T03:31:50;22.70;99.90
19817;DHT22;68323;49.394;8.434;2023-06-19T03:34:16;22.70;99.90
19817;DHT22;68323;49.394;8.434;2023-06-19T03:36:41;22.60;99.90
19817;DHT22;68323;49.394;8.434;2023-06-19T03:39:07;22.60;99.90
19817;DHT22;68323;49.394;8.434;2023-06-19T03:41:32;22.60;99.90
19817;DHT22;68323;49.394;8.434;2023-06-19T03:43:58;22.50;99.90
19817;DHT22;68323;49.394;8.434;2023-06-19T03:46:23;22.50;99.90
19817;DHT22;68323;49.394;8.434;2023-06-19T03:48:49;22.50;99.90
19817;DHT22;68323;49.394;8.434;2023-06-19T03:51:14;22.50;99.90
19817;DHT22;68323;49.394;8.434;2023-06-19T03:53:40;22.50;99.90
19817;DHT22;68323;49.394;8.434;2023-06-19T03:56:07;22.50;99.90
19817;DHT22;68323;49.394;8.434;2023-06-19T03:58:32;22.60;99.90
19817;DHT22;68323;49.394;8.434;2023-06-19T04:00:58;22.60;99.90
19817;DHT22;68323;49.394;8.434;2023-06-19T04:03:23;22.60;99.90
19817;DHT22;68323;49.394;8.434;2023-06-19T04:05:49;22.60;99.90
19817;DHT22;68323;49.394;8.434;2023-06-19T04:08:15;22.60;99.90
19817;DHT22;68323;49.394;8.434;2023-06-19T04:10:41;22.70;99.90
19817;DHT22;68323;49.394;8.434;2023-06-19T04:13:06;22.70;99.90
19817;DHT22;68323;49.394;8.434;2023-06-19T04:15:33;22.80;99.90
19817;DHT22;68323;49.394;8.434;2023-06-19T04:17:58;22.80;99.90
19817;DHT22;68323;49.394;8.434;2023-06-19T04:20:26;22.80;99.90
19817;DHT22;68323;49.394;8.434;2023-06-19T04:22:51;22.90;99.90
19817;DHT22;68323;49.394;8.434;2023-06-19T04:25:17;22.90;99.90
19817;DHT22;68323;49.394;8.434;2023-06-19T04:27:43;23.10;99.90
19817;DHT22;68323;49.394;8.434;2023-06-19T04:30:11;23.10;99.80
19817;DHT22;68323;49.394;8.434;2023-06-19T04:32:37;23.20;99.70
19817;DHT22;68323;49.394;8.434;2023-06-19T04:35:07;23.30;99.10
19817;DHT22;68323;49.394;8.434;2023-06-19T04:37:33;23.30;98.90
19817;DHT22;68323;49.394;8.434;2023-06-19T04:39:58;23.40;98.10
19817;DHT22;68323;49.394;8.434;2023-06-19T04:42:24;23.30;98.30
19817;DHT22;68323;49.394;8.434;2023-06-19T04:44:50;23.30;98.20
19817;DHT22;68323;49.394;8.434;2023-06-19T04:47:18;23.30;98.00
19817;DHT22;68323;49.394;8.434;2023-06-19T04:49:43;23.30;98.00
19817;DHT22;68323;49.394;8.434;2023-06-19T04:52:09;23.30;97.90
19817;DHT22;68323;49.394;8.434;2023-06-19T04:54:35;23.40;97.80
19817;DHT22;68323;49.394;8.434;2023-06-19T04:57:00;23.40;97.80
19817;DHT22;68323;49.394;8.434;2023-06-19T04:59:27;23.50;97.50
19817;DHT22;68323;49.394;8.434;2023-06-19T05:01:52;23.60;97.30
19817;DHT22;68323;49.394;8.434;2023-06-19T05:04:21;23.60;97.30
19817;DHT22;68323;49.394;8.434;2023-06-19T05:06:48;23.70;97.10
19817;DHT22;68323;49.394;8.434;2023-06-19T05:09:13;23.70;96.90
19817;DHT22;68323;49.394;8.434;2023-06-19T05:11:39;23.70;96.80
19817;DHT22;68323;49.394;8.434;2023-06-19T05:14:04;23.80;96.70
19817;DHT22;68323;49.394;8.434;2023-06-19T05:16:30;23.90;96.60
19817;DHT22;68323;49.394;8.434;2023-06-19T05:18:55;23.90;96.40
19817;DHT22;68323;49.394;8.434;2023-06-19T05:21:21;24.10;96.30
19817;DHT22;68323;49.394;8.434;2023-06-19T05:23:46;24.20;95.90
19817;DHT22;68323;49.394;8.434;2023-06-19T05:26:16;24.40;95.40
19817;DHT22;68323;49.394;8.434;2023-06-19T05:28:41;24.80;94.50
19817;DHT22;68323;49.394;8.434;2023-06-19T05:31:07;25.10;93.60
19817;DHT22;68323;49.394;8.434;2023-06-19T05:33:32;25.40;92.50
19817;DHT22;68323;49.394;8.434;2023-06-19T05:35:58;25.60;91.60
19817;DHT22;68323;49.394;8.434;2023-06-19T05:38:23;25.90;90.80
19817;DHT22;68323;49.394;8.434;2023-06-19T05:40:51;25.90;90.70
19817;DHT22;68323;49.394;8.434;2023-06-19T05:43:17;25.90;90.60
19817;DHT22;68323;49.394;8.434;2023-06-19T05:45:44;26.00;90.30
19817;DHT22;68323;49.394;8.434;2023-06-19T05:48:09;26.10;89.70
19817;DHT22;68323;49.394;8.434;2023-06-19T05:50:35;26.20;89.10
19817;DHT22;68323;49.394;8.434;2023-06-19T05:53:01;26.30;89.00
19817;DHT22;68323;49.394;8.434;2023-06-19T05:55:26;26.50;87.80
19817;DHT22;68323;49.394;8.434;2023-06-19T05:57:55;26.70;86.80
19817;DHT22;68323;49.394;8.434;2023-06-19T06:00:21;26.90;85.40
19817;DHT22;68323;49.394;8.434;2023-06-19T06:02:47;27.10;83.70
19817;DHT22;68323;49.394;8.434;2023-06-19T06:05:13;27.10;83.60
19817;DHT22;68323;49.394;8.434;2023-06-19T06:07:39;26.90;84.50
19817;DHT22;68323;49.394;8.434;2023-06-19T06:10:05;26.80;84.10
19817;DHT22;68323;49.394;8.434;2023-06-19T06:12:33;26.60;85.30
19817;DHT22;68323;49.394;8.434;2023-06-19T06:15:00;26.80;85.30
19817;DHT22;68323;49.394;8.434;2023-06-19T06:17:25;27.20;84.00
19817;DHT22;68323;49.394;8.434;2023-06-19T06:19:51;27.90;81.70
19817;DHT22;68323;49.394;8.434;2023-06-19T06:22:16;28.60;78.40
19817;DHT22;68323;49.394;8.434;2023-06-19T06:24:44;29.20;75.90
19817;DHT22;68323;49.394;8.434;2023-06-19T06:27:09;29.80;72.50
19817;DHT22;68323;49.394;8.434;2023-06-19T06:29:35;30.40;70.30
19817;DHT22;68323;49.394;8.434;2023-06-19T06:32:06;31.10;67.90
19817;DHT22;68323;49.394;8.434;2023-06-19T06:34:33;31.70;65.20
19817;DHT22;68323;49.394;8.434;2023-06-19T06:36:59;32.20;63.20
19817;DHT22;68323;49.394;8.434;2023-06-19T06:39:25;32.60;60.70
19817;DHT22;68323;49.394;8.434;2023-06-19T06:41:51;32.60;60.00
19817;DHT22;68323;49.394;8.434;2023-06-19T06:44:17;32.60;59.80
19817;DHT22;68323;49.394;8.434;2023-06-19T06:46:42;32.70;59.30
19817;DHT22;68323;49.394;8.434;2023-06-19T06:49:08;32.80;59.10
19817;DHT22;68323;49.394;8.434;2023-06-19T06:51:33;33.20;58.40
19817;DHT22;68323;49.394;8.434;2023-06-19T06:53:59;33.50;57.50
19817;DHT22;68323;49.394;8.434;2023-06-19T06:56:28;33.80;56.80
19817;DHT22;68323;49.394;8.434;2023-06-19T06:58:53;33.90;56.30
19817;DHT22;68323;49.394;8.434;2023-06-19T07:01:19;34.00;56.30
19817;DHT22;68323;49.394;8.434;2023-06-19T07:03:44;34.30;55.80
19817;DHT22;68323;49.394;8.434;2023-06-19T07:06:10;34.50;55.20
19817;DHT22;68323;49.394;8.434;2023-06-19T07:08:35;34.90;54.40
19817;DHT22;68323;49.394;8.434;2023-06-19T07:11:01;35.40;53.40
19817;DHT22;68323;49.394;8.434;2023-06-19T07:13:27;35.50;53.00
19817;DHT22;68323;49.394;8.434;2023-06-19T07:15:52;35.70;52.50
19817;DHT22;68323;49.394;8.434;2023-06-19T07:18:18;35.80;52.30
19817;DHT22;68323;49.394;8.434;2023-06-19T07:20:43;35.40;52.10
19817;DHT22;68323;49.394;8.434;2023-06-19T07:23:10;34.90;53.00
19817;DHT22;68323;49.394;8.434;2023-06-19T07:25:36;34.20;54.00
19817;DHT22;68323;49.394;8.434;2023-06-19T07:28:01;33.50;55.30
19817;DHT22;68323;49.394;8.434;2023-06-19T07:30:30;33.10;55.90
19817;DHT22;68323;49.394;8.434;2023-06-19T07:32:55;32.70;56.80
19817;DHT22;68323;49.394;8.434;2023-06-19T07:35:21;32.40;57.40
19817;DHT22;68323;49.394;8.434;2023-06-19T07:37:46;32.30;58.20
19817;DHT22;68323;49.394;8.434;2023-06-19T07:40:12;32.20;58.20
19817;DHT22;68323;49.394;8.434;2023-06-19T07:42:37;32.20;57.70
19817;DHT22;68323;49.394;8.434;2023-06-19T07:45:03;32.10;58.30
19817;DHT22;68323;49.394;8.434;2023-06-19T07:47:29;32.00;58.40
19817;DHT22;68323;49.394;8.434;2023-06-19T07:49:55;31.80;58.30
19817;DHT22;68323;49.394;8.434;2023-06-19T07:52:20;31.60;59.00
19817;DHT22;68323;49.394;8.434;2023-06-19T07:54:55;31.20;59.40
19817;DHT22;68323;49.394;8.434;2023-06-19T07:57:21;30.80;60.50
19817;DHT22;68323;49.394;8.434;2023-06-19T07:59:48;30.40;61.50
19817;DHT22;68323;49.394;8.434;2023-06-19T08:02:14;30.10;62.50
19817;DHT22;68323;49.394;8.434;2023-06-19T08:04:40;29.70;63.70
19817;DHT22;68323;49.394;8.434;2023-06-19T08:07:05;29.60;64.60
19817;DHT22;68323;49.394;8.434;2023-06-19T08:09:31;29.30;65.20
19817;DHT22;68323;49.394;8.434;2023-06-19T08:11:57;29.10;65.80
19817;DHT22;68323;49.394;8.434;2023-06-19T08:14:23;29.00;66.30
19817;DHT22;68323;49.394;8.434;2023-06-19T08:16:48;28.90;66.90
19817;DHT22;68323;49.394;8.434;2023-06-19T08:19:14;29.00;67.00
19817;DHT22;68323;49.394;8.434;2023-06-19T08:21:39;29.00;66.90
19817;DHT22;68323;49.394;8.434;2023-06-19T08:24:05;29.10;67.10
19817;DHT22;68323;49.394;8.434;2023-06-19T08:26:31;29.10;67.10
19817;DHT22;68323;49.394;8.434;2023-06-19T08:28:57;29.20;67.20
19817;DHT22;68323;49.394;8.434;2023-06-19T08:31:22;29.10;67.30
19817;DHT22;68323;49.394;8.434;2023-06-19T08:33:57;29.10;67.40
19817;DHT22;68323;49.394;8.434;2023-06-19T08:36:22;29.20;67.40
19817;DHT22;68323;49.394;8.434;2023-06-19T08:38:48;29.20;67.50
19817;DHT22;68323;49.394;8.434;2023-06-19T08:41:18;29.30;67.50
19817;DHT22;68323;49.394;8.434;2023-06-19T08:43:45;29.50;67.10
19817;DHT22;68323;49.394;8.434;2023-06-19T08:46:15;29.80;65.70
19817;DHT22;68323;49.394;8.434;2023-06-19T08:48:41;30.10;65.00
19817;DHT22;68323;49.394;8.434;2023-06-19T08:51:07;30.30;64.10
19817;DHT22;68323;49.394;8.434;2023-06-19T08:53:36;30.40;63.80
19817;DHT22;68323;49.394;8.434;2023-06-19T08:56:03;30.80;63.20
19817;DHT22;68323;49.394;8.434;2023-06-19T08:58:29;31.50;61.80
19817;DHT22;68323;49.394;8.434;2023-06-19T09:00:57;32.70;59.90
19817;DHT22;68323;49.394;8.434;2023-06-19T09:03:23;33.90;56.90
19817;DHT22;68323;49.394;8.434;2023-06-19T09:05:49;34.70;55.50
19817;DHT22;68323;49.394;8.434;2023-06-19T09:08:21;35.40;54.50
19817;DHT22;68323;49.394;8.434;2023-06-19T09:11:03;36.40;52.40
19817;DHT22;68323;49.394;8.434;2023-06-19T09:13:30;37.20;50.40
19817;DHT22;68323;49.394;8.434;2023-06-19T09:16:04;37.60;49.70
19817;DHT22;68323;49.394;8.434;2023-06-19T09:18:31;38.20;48.60
19817;DHT22;68323;49.394;8.434;2023-06-19T09:20:57;38.80;47.90
19817;DHT22;68323;49.394;8.434;2023-06-19T09:23:24;39.20;46.40
19817;DHT22;68323;49.394;8.434;2023-06-19T09:25:53;39.60;46.10
19817;DHT22;68323;49.394;8.434;2023-06-19T09:28:25;40.10;45.30
19817;DHT22;68323;49.394;8.434;2023-06-19T09:31:01;40.70;44.50
19817;DHT22;68323;49.394;8.434;2023-06-19T09:33:32;41.10;43.50
19817;DHT22;68323;49.394;8.434;2023-06-19T09:35:59;41.40;42.70
19817;DHT22;68323;49.394;8.434;2023-06-19T09:38:33;41.50;42.10
19817;DHT22;68323;49.394;8.434;2023-06-19T09:41:02;41.60;42.00
19817;DHT22;68323;49.394;8.434;2023-06-19T09:43:43;41.60;41.90
19817;DHT22;68323;49.394;8.434;2023-06-19T09:46:10;41.70;41.80
19817;DHT22;68323;49.394;8.434;2023-06-19T09:48:42;41.90;40.80
19817;DHT22;68323;49.394;8.434;2023-06-19T09:51:30;41.70;41.00
19817;DHT22;68323;49.394;8.434;2023-06-19T09:53:57;41.70;40.80
19817;DHT22;68323;49.394;8.434;2023-06-19T09:56:24;41.20;41.30
19817;DHT22;68323;49.394;8.434;2023-06-19T09:58:53;40.70;41.90
19817;DHT22;68323;49.394;8.434;2023-06-19T10:01:20;40.30;42.60
19817;DHT22;68323;49.394;8.434;2023-06-19T10:03:46;40.00;43.30
19817;DHT22;68323;49.394;8.434;2023-06-19T10:06:16;40.00;43.20
19817;DHT22;68323;49.394;8.434;2023-06-19T10:08:43;40.40;43.00
19817;DHT22;68323;49.394;8.434;2023-06-19T10:11:13;40.70;42.20
19817;DHT22;68323;49.394;8.434;2023-06-19T10:13:41;40.90;41.60
19817;DHT22;68323;49.394;8.434;2023-06-19T10:16:20;41.10;41.50
19817;DHT22;68323;49.394;8.434;2023-06-19T10:18:47;41.20;41.10
19817;DHT22;68323;49.394;8.434;2023-06-19T10:21:20;41.00;41.50
19817;DHT22;68323;49.394;8.434;2023-06-19T10:23:57;41.10;41.20
19817;DHT22;68323;49.394;8.434;2023-06-19T10:26:33;41.20;41.10
19817;DHT22;68323;49.394;8.434;2023-06-19T10:28:59;41.20;40.70
19817;DHT22;68323;49.394;8.434;2023-06-19T10:31:25;40.90;41.10
19817;DHT22;68323;49.394;8.434;2023-06-19T10:33:50;40.60;41.50
19817;DHT22;68323;49.394;8.434;2023-06-19T10:36:19;40.20;41.80
19817;DHT22;68323;49.394;8.434;2023-06-19T10:38:45;39.90;42.40
19817;DHT22;68323;49.394;8.434;2023-06-19T10:41:23;39.80;42.80
19817;DHT22;68323;49.394;8.434;2023-06-19T10:46:24;39.40;43.30
19817;DHT22;68323;49.394;8.434;2023-06-19T10:48:51;39.40;43.50
19817;DHT22;68323;49.394;8.434;2023-06-19T10:51:20;39.50;43.40
19817;DHT22;68323;49.394;8.434;2023-06-19T10:53:45;39.60;43.00
19817;DHT22;68323;49.394;8.434;2023-06-19T10:56:11;39.50;43.10
19817;DHT22;68323;49.394;8.434;2023-06-19T10:58:36;39.10;43.70
19817;DHT22;68323;49.394;8.434;2023-06-19T11:01:02;38.50;43.90
19817;DHT22;68323;49.394;8.434;2023-06-19T11:03:28;38.00;44.90
19817;DHT22;68323;49.394;8.434;2023-06-19T11:05:54;37.50;45.80
19817;DHT22;68323;49.394;8.434;2023-06-19T11:08:21;37.00;46.30
19817;DHT22;68323;49.394;8.434;2023-06-19T11:10:47;36.60;46.70
19817;DHT22;68323;49.394;8.434;2023-06-19T11:13:14;36.10;47.40
19817;DHT22;68323;49.394;8.434;2023-06-19T11:15:41;35.70;48.00
19817;DHT22;68323;49.394;8.434;2023-06-19T11:18:06;35.30;48.90
19817;DHT22;68323;49.394;8.434;2023-06-19T11:20:49;35.00;49.50
19817;DHT22;68323;49.394;8.434;2023-06-19T11:23:26;34.60;49.80
19817;DHT22;68323;49.394;8.434;2023-06-19T11:25:52;34.30;50.40
19817;DHT22;68323;49.394;8.434;2023-06-19T11:28:17;34.10;50.60
19817;DHT22;68323;49.394;8.434;2023-06-19T11:30:47;33.90;50.90
19817;DHT22;68323;49.394;8.434;2023-06-19T11:33:20;33.70;51.30
19817;DHT22;68323;49.394;8.434;2023-06-19T11:35:53;33.50;51.60
19817;DHT22;68323;49.394;8.434;2023-06-19T11:38:24;33.50;52.60
19817;DHT22;68323;49.394;8.434;2023-06-19T11:40:50;33.50;52.30
19817;DHT22;68323;49.394;8.434;2023-06-19T11:45:51;33.60;51.80
19817;DHT22;68323;49.394;8.434;2023-06-19T11:48:24;33.60;51.70
19817;DHT22;68323;49.394;8.434;2023-06-19T11:50:50;33.60;51.70
19817;DHT22;68323;49.394;8.434;2023-06-19T11:53:17;33.70;51.40
19817;DHT22;68323;49.394;8.434;2023-06-19T11:55:43;33.70;51.70
19817;DHT22;68323;49.394;8.434;2023-06-19T11:58:09;33.60;51.70
19817;DHT22;68323;49.394;8.434;2023-06-19T12:00:36;33.70;51.40
19817;DHT22;68323;49.394;8.434;2023-06-19T12:03:02;33.80;51.50
19817;DHT22;68323;49.394;8.434;2023-06-19T12:05:27;33.90;51.20
19817;DHT22;68323;49.394;8.434;2023-06-19T12:07:53;34.00;51.30
19817;DHT22;68323;49.394;8.434;2023-06-19T12:10:18;34.00;51.60
19817;DHT22;68323;49.394;8.434;2023-06-19T12:12:44;34.00;51.40
19817;DHT22;68323;49.394;8.434;2023-06-19T12:15:09;33.90;51.40
19817;DHT22;68323;49.394;8.434;2023-06-19T12:17:35;33.80;51.50
19817;DHT22;68323;49.394;8.434;2023-06-19T12:20:04;33.90;51.60
19817;DHT22;68323;49.394;8.434;2023-06-19T12:22:34;34.10;50.80
19817;DHT22;68323;49.394;8.434;2023-06-19T12:25:00;34.30;50.80
19817;DHT22;68323;49.394;8.434;2023-06-19T12:27:26;34.50;50.70
19817;DHT22;68323;49.394;8.434;2023-06-19T12:29:51;34.60;50.40
19817;DHT22;68323;49.394;8.434;2023-06-19T12:32:17;34.80;50.30
19817;DHT22;68323;49.394;8.434;2023-06-19T12:34:43;35.20;49.90
19817;DHT22;68323;49.394;8.434;2023-06-19T12:37:15;35.60;49.40
19817;DHT22;68323;49.394;8.434;2023-06-19T12:39:43;35.90;49.10
19817;DHT22;68323;49.394;8.434;2023-06-19T12:42:09;36.10;48.40
19817;DHT22;68323;49.394;8.434;2023-06-19T12:44:37;36.20;47.80
19817;DHT22;68323;49.394;8.434;2023-06-19T12:47:04;36.30;47.60
19817;DHT22;68323;49.394;8.434;2023-06-19T12:49:30;36.40;47.30
19817;DHT22;68323;49.394;8.434;2023-06-19T12:51:56;36.20;47.00
19817;DHT22;68323;49.394;8.434;2023-06-19T12:54:21;36.10;47.20
19817;DHT22;68323;49.394;8.434;2023-06-19T12:56:48;36.00;47.60
19817;DHT22;68323;49.394;8.434;2023-06-19T12:59:14;35.80;47.90
19817;DHT22;68323;49.394;8.434;2023-06-19T13:01:41;35.70;48.10
19817;DHT22;68323;49.394;8.434;2023-06-19T13:04:08;35.60;48.10
19817;DHT22;68323;49.394;8.434;2023-06-19T13:06:35;35.60;48.20
19817;DHT22;68323;49.394;8.434;2023-06-19T13:09:01;35.60;48.20
19817;DHT22;68323;49.394;8.434;2023-06-19T13:11:27;35.60;47.70
19817;DHT22;68323;49.394;8.434;2023-06-19T13:13:52;35.60;48.20
19817;DHT22;68323;49.394;8.434;2023-06-19T13:16:18;35.60;48.20
19817;DHT22;68323;49.394;8.434;2023-06-19T13:18:44;35.50;48.50
19817;DHT22;68323;49.394;8.434;2023-06-19T13:21:10;35.30;48.30
19817;DHT22;68323;49.394;8.434;2023-06-19T13:23:36;35.20;48.50
19817;DHT22;68323;49.394;8.434;2023-06-19T13:26:01;35.10;48.70
19817;DHT22;68323;49.394;8.434;2023-06-19T13:28:27;35.10;48.80
19817;DHT22;68323;49.394;8.434;2023-06-19T13:30:52;35.00;49.00
19817;DHT22;68323;49.394;8.434;2023-06-19T13:33:18;34.90;49.30
19817;DHT22;68323;49.394;8.434;2023-06-19T13:35:43;34.90;49.30
19817;DHT22;68323;49.394;8.434;2023-06-19T13:38:09;34.90;49.10
19817;DHT22;68323;49.394;8.434;2023-06-19T13:40:36;34.80;49.30
19817;DHT22;68323;49.394;8.434;2023-06-19T13:43:01;34.70;49.40
19817;DHT22;68323;49.394;8.434;2023-06-19T13:45:29;34.60;49.60
19817;DHT22;68323;49.394;8.434;2023-06-19T13:47:56;34.50;49.80
19817;DHT22;68323;49.394;8.434;2023-06-19T13:50:21;34.60;49.70
19817;DHT22;68323;49.394;8.434;2023-06-19T13:52:48;34.50;49.60
19817;DHT22;68323;49.394;8.434;2023-06-19T13:55:13;34.50;50.10
19817;DHT22;68323;49.394;8.434;2023-06-19T13:57:43;34.20;50.20
19817;DHT22;68323;49.394;8.434;2023-06-19T14:00:09;34.00;50.70
19817;DHT22;68323;49.394;8.434;2023-06-19T14:02:36;33.90;51.00
19817;DHT22;68323;49.394;8.434;2023-06-19T14:05:04;33.90;51.50
19817;DHT22;68323;49.394;8.434;2023-06-19T14:07:29;33.90;51.40
19817;DHT22;68323;49.394;8.434;2023-06-19T14:09:55;33.90;51.60
19817;DHT22;68323;49.394;8.434;2023-06-19T14:12:20;34.00;51.60
19817;DHT22;68323;49.394;8.434;2023-06-19T14:14:47;34.00;51.30
19817;DHT22;68323;49.394;8.434;2023-06-19T14:17:12;33.90;51.30
19817;DHT22;68323;49.394;8.434;2023-06-19T14:19:38;33.90;51.50
19817;DHT22;68323;49.394;8.434;2023-06-19T14:22:03;33.60;51.50
19817;DHT22;68323;49.394;8.434;2023-06-19T14:24:29;33.40;52.20
19817;DHT22;68323;49.394;8.434;2023-06-19T14:26:55;33.20;52.20
19817;DHT22;68323;49.394;8.434;2023-06-19T14:29:20;33.10;52.90
19817;DHT22;68323;49.394;8.434;2023-06-19T14:31:46;33.00;52.90
19817;DHT22;68323;49.394;8.434;2023-06-19T14:34:12;33.10;52.90
19817;DHT22;68323;49.394;8.434;2023-06-19T14:36:38;33.10;52.80
19817;DHT22;68323;49.394;8.434;2023-06-19T14:39:04;33.30;52.40
19817;DHT22;68323;49.394;8.434;2023-06-19T14:41:29;33.60;52.10
19817;DHT22;68323;49.394;8.434;2023-06-19T14:43:55;34.00;51.60
19817;DHT22;68323;49.394;8.434;2023-06-19T14:46:20;34.20;51.50
19817;DHT22;68323;49.394;8.434;2023-06-19T14:48:46;34.30;50.80
19817;DHT22;68323;49.394;8.434;2023-06-19T14:51:12;34.30;50.80
19817;DHT22;68323;49.394;8.434;2023-06-19T14:53:37;34.20;51.00
19817;DHT22;68323;49.394;8.434;2023-06-19T14:56:03;34.20;51.20
19817;DHT22;68323;49.394;8.434;2023-06-19T14:58:29;34.20;51.50
19817;DHT22;68323;49.394;8.434;2023-06-19T15:00:55;34.30;51.00
19817;DHT22;68323;49.394;8.434;2023-06-19T15:03:20;34.40;50.80
19817;DHT22;68323;49.394;8.434;2023-06-19T15:05:46;34.50;51.40
19817;DHT22;68323;49.394;8.434;2023-06-19T15:08:11;34.60;50.20
19817;DHT22;68323;49.394;8.434;2023-06-19T15:10:37;34.80;49.60
19817;DHT22;68323;49.394;8.434;2023-06-19T15:13:03;34.90;49.40
19817;DHT22;68323;49.394;8.434;2023-06-19T15:15:28;34.90;49.20
19817;DHT22;68323;49.394;8.434;2023-06-19T15:17:54;34.90;49.20
19817;DHT22;68323;49.394;8.434;2023-06-19T15:20:19;34.80;49.10
19817;DHT22;68323;49.394;8.434;2023-06-19T15:22:46;34.70;50.40
19817;DHT22;68323;49.394;8.434;2023-06-19T15:25:12;34.40;51.00
19817;DHT22;68323;49.394;8.434;2023-06-19T15:27:38;34.20;51.20
19817;DHT22;68323;49.394;8.434;2023-06-19T15:30:04;34.10;50.60
19817;DHT22;68323;49.394;8.434;2023-06-19T15:32:29;33.90;50.50
19817;DHT22;68323;49.394;8.434;2023-06-19T15:34:55;33.90;50.50